메인 페이지
METAR-TAF:

METAR-TAF

공항 :

헨리 코안더 국제공항

부쿠레슈티, 루마니아

위도: 44-33N, 경도: 026-06E, 고도: 95m

현재 날씨관측

예보는 28분 전, 03:00시(UTC)에 발표되었습니다.
3kt서남서풍과 북서풍을 오가는
온도 18°C
습도 83%
기압 1014 hPa
시정 10km 이상
1500m 미만 상공 구름 및 적란운 없음

METAR: LROP 170300Z 28003KT 250V310 CAVOK 18/15 Q1014 NOSIG

시각: 06:28 (03:28 UTC)

예보

예보는 4 시간 28분 전, 23:00시(UTC)에 발표되었습니다.
예보 대상 시간: 17일 00시부터 17일 24시까지 (UTC)
북동8kt
시정 10km 이상
1500m 미만 상공 구름 및 적란운 없음
일시적
17일 15시부터 17일 19시까지 (UTC)
고도 4000ft 상공 구름 조금, 적란운.
확률 30% :
일시적
17일 16시부터 17일 19시까지 (UTC)
여러 방향의 바람 18kt
뇌우, 약한비

TAF: LROP 162300Z 1700/1724 04008KT CAVOK TEMPO 1715/1719 FEW040CB PROB30 TEMPO 1716/1719 VRB18KT -TSRA

4,000개 이상의 공항 관측 자료 및 예보 (METAR 및 TAF 보고).

지도상에서 검색 가능한 기상관측소가 노란 점과 빨간 점으로 표시되어 있습니다.

기상관측소 명을 보려면 표시 위로 마우스를 이동하세요.

날씨 관측과 예보를 보려면 클릭하세요.

지도 변경 : 확대하려면 엑스 표시가 있는 녹색 버튼, 축소하려면 빼기 표시가 있는 녹색 버튼, 다음 페이지의 지도를 보려면 녹색 화살표를 클릭하세요.


METAR-TAF: